sensor_id;sensor_type;location;lat;lon;timestamp;P1;durP1;ratioP1;P2;durP2;ratioP2
64982;SDS011;62161;54.688;25.256;2022-09-09T07:34:21;2.42;;;1.00;;
64982;SDS011;62161;54.688;25.256;2022-09-09T07:36:47;4.57;;;1.10;;
64982;SDS011;62161;54.688;25.256;2022-09-09T07:39:13;3.63;;;1.13;;
64982;SDS011;62161;54.688;25.256;2022-09-09T07:41:40;2.55;;;1.00;;
64982;SDS011;62161;54.688;25.256;2022-09-09T07:44:11;7.82;;;1.20;;
64982;SDS011;62161;54.688;25.256;2022-09-09T07:46:38;4.07;;;1.00;;
64982;SDS011;62161;54.688;25.256;2022-09-09T07:49:05;2.05;;;1.10;;
64982;SDS011;62161;54.688;25.256;2022-09-09T07:51:32;1.98;;;1.30;;
64982;SDS011;62161;54.688;25.256;2022-09-09T07:54:01;3.30;;;1.00;;
64982;SDS011;62161;54.688;25.256;2022-09-09T07:56:29;3.60;;;0.90;;
64982;SDS011;62161;54.688;25.256;2022-09-09T07:58:55;1.92;;;1.10;;
64982;SDS011;62161;54.688;25.256;2022-09-09T08:01:23;6.20;;;1.38;;
64982;SDS011;62161;54.688;25.256;2022-09-09T08:03:54;5.78;;;1.13;;
64982;SDS011;62161;54.688;25.256;2022-09-09T08:06:25;4.25;;;1.20;;
64982;SDS011;62161;54.688;25.256;2022-09-09T08:08:52;5.45;;;1.00;;
64982;SDS011;62161;54.688;25.256;2022-09-09T08:11:18;5.15;;;1.15;;
64982;SDS011;62161;54.688;25.256;2022-09-09T08:13:43;4.00;;;1.00;;
64982;SDS011;62161;54.688;25.256;2022-09-09T08:16:13;3.35;;;1.00;;
64982;SDS011;62161;54.688;25.256;2022-09-09T08:18:41;4.60;;;0.90;;
64982;SDS011;62161;54.688;25.256;2022-09-09T08:21:08;4.75;;;1.00;;
64982;SDS011;62161;54.688;25.256;2022-09-09T08:23:41;2.55;;;0.90;;
64982;SDS011;62161;54.688;25.256;2022-09-09T08:26:16;5.95;;;0.90;;
64982;SDS011;62161;54.688;25.256;2022-09-09T08:28:51;2.22;;;1.00;;
64982;SDS011;62161;54.688;25.256;2022-09-09T08:31:21;3.85;;;0.88;;
64982;SDS011;62161;54.688;25.256;2022-09-09T08:33:51;7.40;;;0.90;;
64982;SDS011;62161;54.688;25.256;2022-09-09T08:36:17;2.42;;;0.80;;
64982;SDS011;62161;54.688;25.256;2022-09-09T08:39:03;2.22;;;0.70;;
64982;SDS011;62161;54.688;25.256;2022-09-09T08:47:40;2.03;;;1.17;;
64982;SDS011;62161;54.688;25.256;2022-09-09T08:52:55;3.78;;;0.85;;
64982;SDS011;62161;54.688;25.256;2022-09-09T08:58:15;5.57;;;0.90;;
64982;SDS011;62161;54.688;25.256;2022-09-09T09:09:30;8.05;;;1.00;;
64982;SDS011;62161;54.688;25.256;2022-09-09T09:12:21;3.03;;;1.00;;
64982;SDS011;62161;54.688;25.256;2022-09-09T09:14:49;6.10;;;1.00;;
64982;SDS011;62161;54.688;25.256;2022-09-09T09:19:46;2.45;;;1.10;;
64982;SDS011;62161;54.688;25.256;2022-09-09T09:29:49;2.53;;;1.00;;
64982;SDS011;62161;54.688;25.256;2022-09-09T09:32:17;1.85;;;0.90;;
64982;SDS011;62161;54.688;25.256;2022-09-09T09:34:49;4.45;;;1.20;;
64982;SDS011;62161;54.688;25.256;2022-09-09T09:37:17;2.42;;;1.20;;
64982;SDS011;62161;54.688;25.256;2022-09-09T09:40:07;1.75;;;1.10;;
64982;SDS011;62161;54.688;25.256;2022-09-09T09:42:34;6.03;;;1.23;;
64982;SDS011;62161;54.688;25.256;2022-09-09T09:48:00;3.00;;;1.20;;
64982;SDS011;62161;54.688;25.256;2022-09-09T09:50:30;12.27;;;1.10;;
64982;SDS011;62161;54.688;25.256;2022-09-09T09:53:02;5.53;;;1.38;;
64982;SDS011;62161;54.688;25.256;2022-09-09T09:55:30;4.07;;;1.20;;
64982;SDS011;62161;54.688;25.256;2022-09-09T09:58:05;4.65;;;0.95;;
64982;SDS011;62161;54.688;25.256;2022-09-09T10:00:31;6.63;;;1.30;;
64982;SDS011;62161;54.688;25.256;2022-09-09T10:02:59;6.10;;;1.20;;
64982;SDS011;62161;54.688;25.256;2022-09-09T10:05:26;3.75;;;1.23;;
64982;SDS011;62161;54.688;25.256;2022-09-09T10:10:51;2.55;;;1.20;;
64982;SDS011;62161;54.688;25.256;2022-09-09T10:16:29;2.00;;;1.23;;
64982;SDS011;62161;54.688;25.256;2022-09-09T10:27:28;4.70;;;1.45;;
64982;SDS011;62161;54.688;25.256;2022-09-09T10:35:27;1.88;;;1.30;;
64982;SDS011;62161;54.688;25.256;2022-09-09T10:38:04;11.15;;;2.28;;
64982;SDS011;62161;54.688;25.256;2022-09-09T10:55:16;2.20;;;1.30;;
64982;SDS011;62161;54.688;25.256;2022-09-09T10:57:42;5.35;;;1.50;;
64982;SDS011;62161;54.688;25.256;2022-09-09T11:00:22;3.13;;;1.13;;
64982;SDS011;62161;54.688;25.256;2022-09-09T11:03:01;2.03;;;1.20;;
64982;SDS011;62161;54.688;25.256;2022-09-09T11:05:34;5.85;;;1.20;;
64982;SDS011;62161;54.688;25.256;2022-09-09T11:08:19;4.85;;;1.20;;
64982;SDS011;62161;54.688;25.256;2022-09-09T11:21:51;5.25;;;1.20;;
64982;SDS011;62161;54.688;25.256;2022-09-09T11:24:21;2.92;;;1.30;;
64982;SDS011;62161;54.688;25.256;2022-09-09T11:26:54;3.25;;;1.20;;
64982;SDS011;62161;54.688;25.256;2022-09-09T11:35:19;4.40;;;1.25;;
64982;SDS011;62161;54.688;25.256;2022-09-09T11:41:01;3.67;;;1.10;;
64982;SDS011;62161;54.688;25.256;2022-09-09T11:43:31;2.92;;;1.50;;
64982;SDS011;62161;54.688;25.256;2022-09-09T11:46:08;12.05;;;1.20;;
64982;SDS011;62161;54.688;25.256;2022-09-09T11:48:35;5.65;;;1.20;;
64982;SDS011;62161;54.688;25.256;2022-09-09T11:51:34;7.60;;;1.55;;
64982;SDS011;62161;54.688;25.256;2022-09-09T11:56:27;2.30;;;1.05;;
64982;SDS011;62161;54.688;25.256;2022-09-09T12:01:28;5.17;;;1.63;;
64982;SDS011;62161;54.688;25.256;2022-09-09T12:06:47;4.20;;;1.20;;
64982;SDS011;62161;54.688;25.256;2022-09-09T12:19:47;6.30;;;1.38;;
64982;SDS011;62161;54.688;25.256;2022-09-09T12:24:43;5.13;;;1.30;;
64982;SDS011;62161;54.688;25.256;2022-09-09T12:27:28;5.00;;;1.83;;
64982;SDS011;62161;54.688;25.256;2022-09-09T12:30:17;5.40;;;1.50;;
64982;SDS011;62161;54.688;25.256;2022-09-09T12:32:43;4.95;;;1.30;;
64982;SDS011;62161;54.688;25.256;2022-09-09T12:40:20;10.00;;;1.83;;
64982;SDS011;62161;54.688;25.256;2022-09-09T12:42:48;8.75;;;1.80;;
64982;SDS011;62161;54.688;25.256;2022-09-09T12:45:23;3.03;;;1.63;;
64982;SDS011;62161;54.688;25.256;2022-09-09T12:50:22;8.13;;;1.60;;
64982;SDS011;62161;54.688;25.256;2022-09-09T12:52:48;13.05;;;1.70;;
64982;SDS011;62161;54.688;25.256;2022-09-09T12:55:38;4.00;;;1.67;;
64982;SDS011;62161;54.688;25.256;2022-09-09T12:58:03;4.05;;;1.70;;
64982;SDS011;62161;54.688;25.256;2022-09-09T13:00:31;11.05;;;2.03;;
64982;SDS011;62161;54.688;25.256;2022-09-09T13:02:58;9.32;;;1.58;;
64982;SDS011;62161;54.688;25.256;2022-09-09T13:05:27;6.95;;;1.40;;
64982;SDS011;62161;54.688;25.256;2022-09-09T13:08:00;7.47;;;1.40;;
64982;SDS011;62161;54.688;25.256;2022-09-09T13:10:40;5.60;;;1.60;;
64982;SDS011;62161;54.688;25.256;2022-09-09T13:13:21;4.57;;;1.75;;
64982;SDS011;62161;54.688;25.256;2022-09-09T13:15:51;7.13;;;1.88;;
64982;SDS011;62161;54.688;25.256;2022-09-09T13:18:21;5.15;;;1.40;;
64982;SDS011;62161;54.688;25.256;2022-09-09T13:20:53;5.05;;;1.48;;
64982;SDS011;62161;54.688;25.256;2022-09-09T13:23:21;6.95;;;1.50;;
64982;SDS011;62161;54.688;25.256;2022-09-09T13:25:54;6.45;;;1.58;;
64982;SDS011;62161;54.688;25.256;2022-09-09T13:28:25;6.50;;;1.38;;
64982;SDS011;62161;54.688;25.256;2022-09-09T13:31:18;10.38;;;1.42;;
64982;SDS011;62161;54.688;25.256;2022-09-09T13:33:48;4.07;;;1.33;;
64982;SDS011;62161;54.688;25.256;2022-09-09T13:36:14;9.70;;;1.40;;
64982;SDS011;62161;54.688;25.256;2022-09-09T13:42:01;5.25;;;1.40;;
64982;SDS011;62161;54.688;25.256;2022-09-09T13:45:14;11.93;;;1.50;;
64982;SDS011;62161;54.688;25.256;2022-09-09T13:47:42;7.90;;;1.42;;
64982;SDS011;62161;54.688;25.256;2022-09-09T13:50:21;3.88;;;1.20;;
64982;SDS011;62161;54.688;25.256;2022-09-09T13:52:52;5.97;;;1.40;;
64982;SDS011;62161;54.688;25.256;2022-09-09T13:55:22;6.97;;;1.52;;
64982;SDS011;62161;54.688;25.256;2022-09-09T14:00:22;8.52;;;1.50;;
64982;SDS011;62161;54.688;25.256;2022-09-09T14:02:49;9.80;;;1.42;;
64982;SDS011;62161;54.688;25.256;2022-09-09T14:05:15;6.88;;;1.40;;
64982;SDS011;62161;54.688;25.256;2022-09-09T14:07:42;9.65;;;1.40;;
64982;SDS011;62161;54.688;25.256;2022-09-09T14:10:08;5.38;;;1.00;;
64982;SDS011;62161;54.688;25.256;2022-09-09T14:12:34;6.00;;;1.40;;
64982;SDS011;62161;54.688;25.256;2022-09-09T14:15:01;8.43;;;1.13;;
64982;SDS011;62161;54.688;25.256;2022-09-09T14:17:30;5.95;;;1.30;;
64982;SDS011;62161;54.688;25.256;2022-09-09T14:19:56;6.47;;;1.27;;
64982;SDS011;62161;54.688;25.256;2022-09-09T14:22:22;8.93;;;1.20;;
64982;SDS011;62161;54.688;25.256;2022-09-09T14:24:49;8.55;;;1.17;;
64982;SDS011;62161;54.688;25.256;2022-09-09T14:27:15;8.60;;;1.27;;
64982;SDS011;62161;54.688;25.256;2022-09-09T14:29:41;6.55;;;1.40;;
64982;SDS011;62161;54.688;25.256;2022-09-09T14:32:08;7.18;;;1.60;;
64982;SDS011;62161;54.688;25.256;2022-09-09T14:34:33;4.55;;;1.10;;
64982;SDS011;62161;54.688;25.256;2022-09-09T14:37:00;4.25;;;1.20;;
64982;SDS011;62161;54.688;25.256;2022-09-09T14:39:25;6.38;;;1.20;;
64982;SDS011;62161;54.688;25.256;2022-09-09T14:41:51;2.60;;;1.20;;
64982;SDS011;62161;54.688;25.256;2022-09-09T14:44:16;5.38;;;0.85;;
64982;SDS011;62161;54.688;25.256;2022-09-09T14:46:42;8.40;;;1.08;;
64982;SDS011;62161;54.688;25.256;2022-09-09T14:49:08;7.03;;;1.13;;
64982;SDS011;62161;54.688;25.256;2022-09-09T14:51:35;4.35;;;1.42;;
64982;SDS011;62161;54.688;25.256;2022-09-09T14:54:01;7.95;;;1.17;;
64982;SDS011;62161;54.688;25.256;2022-09-09T14:56:28;8.57;;;1.30;;
64982;SDS011;62161;54.688;25.256;2022-09-09T14:58:56;6.18;;;1.20;;
64982;SDS011;62161;54.688;25.256;2022-09-09T15:01:23;11.68;;;1.30;;
64982;SDS011;62161;54.688;25.256;2022-09-09T15:06:20;11.82;;;1.10;;
64982;SDS011;62161;54.688;25.256;2022-09-09T15:08:47;4.18;;;1.25;;
64982;SDS011;62161;54.688;25.256;2022-09-09T15:11:13;7.85;;;1.20;;
64982;SDS011;62161;54.688;25.256;2022-09-09T15:13:40;3.17;;;1.33;;
64982;SDS011;62161;54.688;25.256;2022-09-09T15:16:08;6.53;;;1.10;;
64982;SDS011;62161;54.688;25.256;2022-09-09T15:18:45;6.10;;;1.10;;
64982;SDS011;62161;54.688;25.256;2022-09-09T15:21:15;5.22;;;1.20;;
64982;SDS011;62161;54.688;25.256;2022-09-09T15:23:42;6.97;;;1.50;;
64982;SDS011;62161;54.688;25.256;2022-09-09T15:26:08;6.97;;;1.50;;
64982;SDS011;62161;54.688;25.256;2022-09-09T15:28:35;10.02;;;1.45;;
64982;SDS011;62161;54.688;25.256;2022-09-09T15:31:13;12.00;;;1.60;;
64982;SDS011;62161;54.688;25.256;2022-09-09T15:33:46;6.75;;;2.10;;
64982;SDS011;62161;54.688;25.256;2022-09-09T15:36:26;7.55;;;1.70;;
64982;SDS011;62161;54.688;25.256;2022-09-09T15:39:03;7.68;;;1.20;;
64982;SDS011;62161;54.688;25.256;2022-09-09T15:41:30;4.95;;;1.10;;
64982;SDS011;62161;54.688;25.256;2022-09-09T15:43:59;10.60;;;1.50;;
64982;SDS011;62161;54.688;25.256;2022-09-09T15:49:12;4.38;;;1.48;;
64982;SDS011;62161;54.688;25.256;2022-09-09T15:51:40;4.72;;;1.40;;
64982;SDS011;62161;54.688;25.256;2022-09-09T15:54:10;4.00;;;1.48;;
64982;SDS011;62161;54.688;25.256;2022-09-09T15:56:37;9.07;;;1.60;;
64982;SDS011;62161;54.688;25.256;2022-09-09T15:59:03;11.70;;;1.63;;
64982;SDS011;62161;54.688;25.256;2022-09-09T16:01:29;6.90;;;1.42;;
64982;SDS011;62161;54.688;25.256;2022-09-09T16:03:56;6.53;;;1.90;;
64982;SDS011;62161;54.688;25.256;2022-09-09T16:06:23;6.03;;;1.65;;
64982;SDS011;62161;54.688;25.256;2022-09-09T16:08:50;7.55;;;1.70;;
64982;SDS011;62161;54.688;25.256;2022-09-09T16:11:22;6.97;;;1.58;;
64982;SDS011;62161;54.688;25.256;2022-09-09T16:13:51;13.77;;;2.30;;
64982;SDS011;62161;54.688;25.256;2022-09-09T16:16:19;11.80;;;1.75;;
64982;SDS011;62161;54.688;25.256;2022-09-09T16:18:47;7.20;;;1.80;;
64982;SDS011;62161;54.688;25.256;2022-09-09T16:21:18;5.32;;;1.83;;
64982;SDS011;62161;54.688;25.256;2022-09-09T16:23:54;6.80;;;1.80;;
64982;SDS011;62161;54.688;25.256;2022-09-09T16:26:20;6.32;;;1.98;;
64982;SDS011;62161;54.688;25.256;2022-09-09T16:28:46;6.28;;;2.30;;
64982;SDS011;62161;54.688;25.256;2022-09-09T16:31:19;6.28;;;2.00;;
64982;SDS011;62161;54.688;25.256;2022-09-09T16:33:46;11.52;;;2.35;;
64982;SDS011;62161;54.688;25.256;2022-09-09T16:36:30;13.10;;;2.30;;
64982;SDS011;62161;54.688;25.256;2022-09-09T16:38:59;7.88;;;2.20;;
64982;SDS011;62161;54.688;25.256;2022-09-09T16:41:26;12.98;;;2.10;;
64982;SDS011;62161;54.688;25.256;2022-09-09T16:43:59;14.73;;;2.15;;
64982;SDS011;62161;54.688;25.256;2022-09-09T16:46:29;9.07;;;2.03;;
64982;SDS011;62161;54.688;25.256;2022-09-09T16:48:56;3.60;;;2.00;;
64982;SDS011;62161;54.688;25.256;2022-09-09T16:51:30;15.88;;;2.33;;
64982;SDS011;62161;54.688;25.256;2022-09-09T16:54:00;10.68;;;2.20;;
64982;SDS011;62161;54.688;25.256;2022-09-09T16:56:27;8.38;;;2.08;;
64982;SDS011;62161;54.688;25.256;2022-09-09T16:58:56;5.55;;;2.33;;
64982;SDS011;62161;54.688;25.256;2022-09-09T17:01:23;14.02;;;2.50;;
64982;SDS011;62161;54.688;25.256;2022-09-09T17:03:53;11.15;;;2.20;;
64982;SDS011;62161;54.688;25.256;2022-09-09T17:06:20;14.85;;;2.40;;
64982;SDS011;62161;54.688;25.256;2022-09-09T17:08:46;12.50;;;3.40;;
64982;SDS011;62161;54.688;25.256;2022-09-09T17:13:40;5.85;;;2.50;;
64982;SDS011;62161;54.688;25.256;2022-09-09T17:16:08;9.52;;;2.78;;
64982;SDS011;62161;54.688;25.256;2022-09-09T17:18:35;7.50;;;2.47;;
64982;SDS011;62161;54.688;25.256;2022-09-09T17:21:07;11.25;;;2.67;;
64982;SDS011;62161;54.688;25.256;2022-09-09T17:23:36;7.85;;;2.78;;
64982;SDS011;62161;54.688;25.256;2022-09-09T17:26:03;11.65;;;2.60;;
64982;SDS011;62161;54.688;25.256;2022-09-09T17:28:30;13.77;;;2.92;;
64982;SDS011;62161;54.688;25.256;2022-09-09T17:30:59;9.88;;;2.83;;
64982;SDS011;62161;54.688;25.256;2022-09-09T17:33:31;13.82;;;2.92;;
64982;SDS011;62161;54.688;25.256;2022-09-09T17:35:58;8.82;;;3.05;;
64982;SDS011;62161;54.688;25.256;2022-09-09T17:38:31;13.68;;;3.05;;
64982;SDS011;62161;54.688;25.256;2022-09-09T17:41:01;11.52;;;3.10;;
64982;SDS011;62161;54.688;25.256;2022-09-09T17:43:28;11.38;;;3.28;;
64982;SDS011;62161;54.688;25.256;2022-09-09T17:45:53;11.00;;;3.88;;
64982;SDS011;62161;54.688;25.256;2022-09-09T17:48:19;10.98;;;3.90;;
64982;SDS011;62161;54.688;25.256;2022-09-09T17:50:44;14.63;;;3.90;;
64982;SDS011;62161;54.688;25.256;2022-09-09T17:53:11;10.80;;;3.70;;
64982;SDS011;62161;54.688;25.256;2022-09-09T17:55:36;16.17;;;4.05;;
64982;SDS011;62161;54.688;25.256;2022-09-09T17:58:02;16.85;;;4.50;;
64982;SDS011;62161;54.688;25.256;2022-09-09T18:00:27;16.63;;;4.60;;
64982;SDS011;62161;54.688;25.256;2022-09-09T18:02:54;21.65;;;5.03;;
64982;SDS011;62161;54.688;25.256;2022-09-09T18:05:19;13.52;;;4.68;;
64982;SDS011;62161;54.688;25.256;2022-09-09T18:07:45;12.40;;;4.50;;
64982;SDS011;62161;54.688;25.256;2022-09-09T18:10:10;13.38;;;4.70;;
64982;SDS011;62161;54.688;25.256;2022-09-09T18:12:36;15.38;;;4.85;;
64982;SDS011;62161;54.688;25.256;2022-09-09T18:15:01;10.77;;;4.20;;
64982;SDS011;62161;54.688;25.256;2022-09-09T18:17:27;10.80;;;4.10;;
64982;SDS011;62161;54.688;25.256;2022-09-09T18:19:54;17.70;;;4.43;;
64982;SDS011;62161;54.688;25.256;2022-09-09T18:22:19;16.40;;;4.55;;
64982;SDS011;62161;54.688;25.256;2022-09-09T18:24:45;13.10;;;4.70;;
64982;SDS011;62161;54.688;25.256;2022-09-09T18:27:12;12.07;;;4.10;;
64982;SDS011;62161;54.688;25.256;2022-09-09T18:29:38;12.45;;;4.18;;
64982;SDS011;62161;54.688;25.256;2022-09-09T18:32:03;12.25;;;3.60;;
64982;SDS011;62161;54.688;25.256;2022-09-09T18:34:29;20.55;;;3.97;;
64982;SDS011;62161;54.688;25.256;2022-09-09T18:36:54;9.88;;;3.25;;
64982;SDS011;62161;54.688;25.256;2022-09-09T18:39:24;11.93;;;4.00;;
64982;SDS011;62161;54.688;25.256;2022-09-09T18:41:53;11.25;;;3.63;;
64982;SDS011;62161;54.688;25.256;2022-09-09T18:44:24;8.88;;;3.53;;
64982;SDS011;62161;54.688;25.256;2022-09-09T18:46:52;12.30;;;3.63;;
64982;SDS011;62161;54.688;25.256;2022-09-09T18:49:18;16.90;;;3.80;;
64982;SDS011;62161;54.688;25.256;2022-09-09T18:51:45;16.73;;;3.42;;
64982;SDS011;62161;54.688;25.256;2022-09-09T18:54:21;14.75;;;3.40;;
64982;SDS011;62161;54.688;25.256;2022-09-09T18:56:48;7.43;;;3.45;;
64982;SDS011;62161;54.688;25.256;2022-09-09T18:59:15;12.25;;;3.35;;
64982;SDS011;62161;54.688;25.256;2022-09-09T19:01:46;12.18;;;3.30;;
64982;SDS011;62161;54.688;25.256;2022-09-09T19:04:12;6.53;;;2.80;;
64982;SDS011;62161;54.688;25.256;2022-09-09T19:06:40;16.35;;;3.35;;
64982;SDS011;62161;54.688;25.256;2022-09-09T19:09:10;12.48;;;3.40;;
64982;SDS011;62161;54.688;25.256;2022-09-09T19:11:37;10.48;;;3.58;;
64982;SDS011;62161;54.688;25.256;2022-09-09T19:14:03;6.53;;;3.13;;
64982;SDS011;62161;54.688;25.256;2022-09-09T19:16:33;7.20;;;3.47;;
64982;SDS011;62161;54.688;25.256;2022-09-09T19:19:03;9.18;;;2.80;;
64982;SDS011;62161;54.688;25.256;2022-09-09T19:21:31;6.05;;;2.97;;
64982;SDS011;62161;54.688;25.256;2022-09-09T19:24:04;6.55;;;3.28;;
64982;SDS011;62161;54.688;25.256;2022-09-09T19:26:42;10.27;;;3.38;;
64982;SDS011;62161;54.688;25.256;2022-09-09T19:29:13;8.43;;;3.10;;
64982;SDS011;62161;54.688;25.256;2022-09-09T19:31:43;7.50;;;3.38;;
64982;SDS011;62161;54.688;25.256;2022-09-09T19:34:09;8.40;;;3.00;;
64982;SDS011;62161;54.688;25.256;2022-09-09T19:36:35;7.82;;;3.35;;
64982;SDS011;62161;54.688;25.256;2022-09-09T19:39:03;12.43;;;3.72;;
64982;SDS011;62161;54.688;25.256;2022-09-09T19:41:29;8.35;;;3.30;;
64982;SDS011;62161;54.688;25.256;2022-09-09T19:44:00;7.45;;;3.03;;
64982;SDS011;62161;54.688;25.256;2022-09-09T19:46:27;6.93;;;2.67;;
64982;SDS011;62161;54.688;25.256;2022-09-09T19:48:54;11.77;;;3.00;;
64982;SDS011;62161;54.688;25.256;2022-09-09T19:51:20;19.20;;;2.65;;
64982;SDS011;62161;54.688;25.256;2022-09-09T19:53:47;4.88;;;2.20;;
64982;SDS011;62161;54.688;25.256;2022-09-09T19:56:14;7.85;;;2.70;;
64982;SDS011;62161;54.688;25.256;2022-09-09T19:58:41;6.93;;;2.00;;
64982;SDS011;62161;54.688;25.256;2022-09-09T20:06:09;12.23;;;2.53;;
64982;SDS011;62161;54.688;25.256;2022-09-09T20:08:36;8.32;;;2.40;;
64982;SDS011;62161;54.688;25.256;2022-09-09T20:11:03;6.63;;;2.33;;
64982;SDS011;62161;54.688;25.256;2022-09-09T20:13:30;10.02;;;2.65;;
64982;SDS011;62161;54.688;25.256;2022-09-09T20:16:01;5.72;;;2.53;;
64982;SDS011;62161;54.688;25.256;2022-09-09T20:18:32;8.82;;;2.50;;
64982;SDS011;62161;54.688;25.256;2022-09-09T20:21:03;9.65;;;2.72;;
64982;SDS011;62161;54.688;25.256;2022-09-09T20:23:36;6.13;;;2.47;;
64982;SDS011;62161;54.688;25.256;2022-09-09T20:26:03;7.43;;;2.35;;
64982;SDS011;62161;54.688;25.256;2022-09-09T20:28:34;6.88;;;2.67;;
64982;SDS011;62161;54.688;25.256;2022-09-09T20:31:12;6.18;;;2.30;;
64982;SDS011;62161;54.688;25.256;2022-09-09T20:33:39;7.43;;;2.50;;
64982;SDS011;62161;54.688;25.256;2022-09-09T20:38:34;6.65;;;2.10;;
64982;SDS011;62161;54.688;25.256;2022-09-09T20:41:03;13.65;;;2.40;;
64982;SDS011;62161;54.688;25.256;2022-09-09T20:43:28;9.52;;;2.17;;
64982;SDS011;62161;54.688;25.256;2022-09-09T20:45:53;8.30;;;2.55;;
64982;SDS011;62161;54.688;25.256;2022-09-09T20:48:22;6.68;;;2.25;;
64982;SDS011;62161;54.688;25.256;2022-09-09T20:50:48;6.00;;;2.20;;
64982;SDS011;62161;54.688;25.256;2022-09-09T20:53:13;6.45;;;2.40;;
64982;SDS011;62161;54.688;25.256;2022-09-09T20:55:39;8.30;;;2.50;;
64982;SDS011;62161;54.688;25.256;2022-09-09T20:58:05;10.48;;;2.20;;
64982;SDS011;62161;54.688;25.256;2022-09-09T21:00:31;5.95;;;1.95;;
64982;SDS011;62161;54.688;25.256;2022-09-09T21:02:56;9.30;;;2.33;;
64982;SDS011;62161;54.688;25.256;2022-09-09T21:05:22;11.27;;;2.45;;
64982;SDS011;62161;54.688;25.256;2022-09-09T21:07:48;11.32;;;2.30;;
64982;SDS011;62161;54.688;25.256;2022-09-09T21:10:14;11.05;;;2.75;;
64982;SDS011;62161;54.688;25.256;2022-09-09T21:12:39;7.43;;;2.50;;
64982;SDS011;62161;54.688;25.256;2022-09-09T21:15:04;5.80;;;2.65;;
64982;SDS011;62161;54.688;25.256;2022-09-09T21:17:30;5.97;;;2.25;;
64982;SDS011;62161;54.688;25.256;2022-09-09T21:19:56;4.95;;;2.45;;
64982;SDS011;62161;54.688;25.256;2022-09-09T21:22:21;7.10;;;2.30;;
64982;SDS011;62161;54.688;25.256;2022-09-09T21:24:47;7.32;;;2.20;;
64982;SDS011;62161;54.688;25.256;2022-09-09T21:27:12;10.38;;;2.03;;
64982;SDS011;62161;54.688;25.256;2022-09-09T21:29:38;8.48;;;2.40;;
64982;SDS011;62161;54.688;25.256;2022-09-09T21:32:04;8.88;;;2.20;;
64982;SDS011;62161;54.688;25.256;2022-09-09T21:34:29;11.60;;;2.53;;
64982;SDS011;62161;54.688;25.256;2022-09-09T21:36:58;7.85;;;2.30;;
64982;SDS011;62161;54.688;25.256;2022-09-09T21:39:24;5.10;;;1.90;;
64982;SDS011;62161;54.688;25.256;2022-09-09T21:41:49;7.75;;;2.40;;
64982;SDS011;62161;54.688;25.256;2022-09-09T21:44:14;7.45;;;2.35;;
64982;SDS011;62161;54.688;25.256;2022-09-09T21:46:40;6.72;;;2.20;;
64982;SDS011;62161;54.688;25.256;2022-09-09T21:49:07;7.93;;;2.40;;
64982;SDS011;62161;54.688;25.256;2022-09-09T21:51:33;4.82;;;2.28;;
64982;SDS011;62161;54.688;25.256;2022-09-09T21:53:59;6.65;;;2.10;;
64982;SDS011;62161;54.688;25.256;2022-09-09T21:56:24;5.78;;;2.38;;
64982;SDS011;62161;54.688;25.256;2022-09-09T21:58:54;11.95;;;2.55;;
64982;SDS011;62161;54.688;25.256;2022-09-09T22:01:21;6.55;;;2.15;;
64982;SDS011;62161;54.688;25.256;2022-09-09T22:03:50;13.90;;;2.53;;
64982;SDS011;62161;54.688;25.256;2022-09-09T22:06:16;4.53;;;2.10;;
64982;SDS011;62161;54.688;25.256;2022-09-09T22:08:43;9.13;;;2.20;;
64982;SDS011;62161;54.688;25.256;2022-09-09T22:11:11;11.75;;;2.20;;
64982;SDS011;62161;54.688;25.256;2022-09-09T22:13:38;5.88;;;2.28;;
64982;SDS011;62161;54.688;25.256;2022-09-09T22:16:05;7.82;;;2.58;;
64982;SDS011;62161;54.688;25.256;2022-09-09T22:18:33;6.55;;;2.10;;
64982;SDS011;62161;54.688;25.256;2022-09-09T22:20:58;8.82;;;2.30;;
64982;SDS011;62161;54.688;25.256;2022-09-09T22:23:32;6.10;;;2.08;;
64982;SDS011;62161;54.688;25.256;2022-09-09T22:25:57;7.75;;;2.30;;
64982;SDS011;62161;54.688;25.256;2022-09-09T22:28:22;5.28;;;2.15;;
64982;SDS011;62161;54.688;25.256;2022-09-09T22:30:48;7.20;;;2.22;;
64982;SDS011;62161;54.688;25.256;2022-09-09T22:33:13;9.65;;;2.15;;
64982;SDS011;62161;54.688;25.256;2022-09-09T22:35:39;7.93;;;2.05;;
64982;SDS011;62161;54.688;25.256;2022-09-09T22:38:07;12.48;;;1.90;;
64982;SDS011;62161;54.688;25.256;2022-09-09T22:40:35;4.18;;;2.22;;
64982;SDS011;62161;54.688;25.256;2022-09-09T22:43:11;9.25;;;2.50;;
64982;SDS011;62161;54.688;25.256;2022-09-09T22:45:39;6.80;;;2.50;;
64982;SDS011;62161;54.688;25.256;2022-09-09T22:48:05;5.65;;;2.30;;
64982;SDS011;62161;54.688;25.256;2022-09-09T22:50:34;7.53;;;1.95;;
